Details From LPPT - Lisboa
To LPBJ - BEJA
Flight Number -
Tags generated
Created
Modified
Stats Distance 71 nm / 131 km
Max Altitude 4,000 ft / 1,219 m
Waypoints 3
Social Downloads 4
Likes 0
Share VATSIM

Download

Looking for another format? Having issues loading an existing format? Contact us
Advertisement - Login to hide

Notes

Basic altitude profile: - Ascent Rate: 2500ft/min - Ascent Speed: 250kts - Cruise Altitude: 35000ft - Cruise Speed: 420kts - Descent Rate: 1500ft/min - Descent Speed: 250kts

Route

LPPT SOTEX LPBJ

ID Type Via Altitude Latitude Longitude Leg Dist Tot Dist Heading (true) Name
O LPPT APT - 0 ft / 0 m 38.77856˚ -9.13515˚ - 0 nm - Lisboa
SOTEX FIX - 4,000 ft / 1,219 m 38.29278˚ -8.22000˚ 51 nm 51 nm 124° / 124° -
O LPBJ APT - 0 ft / 0 m 38.07878˚ -7.93118˚ 18 nm 70 nm 133° / 133° BEJA

Altitude Profile

Advertisement - Login to hide

LPPT

Details ICAO LPPT (LIS)
Name Lisboa
Region Portugal
Timezone Europe/Lisbon (UTC+0.0)
Stats Elevation 374 ft / 114 m (AMSL)
Location 38.778559° -9.135146°
Runways 2
Magnetic Variation 2.365° W

METAR

LPPT 132000Z 23005KT 6000 SCT004 BKN008 13/12 Q1028

Decode

TAF

TAF LPPT 131700Z 1318/1424 22008KT 9999 FEW010 BKN018 TEMPO 1318/1321 5000 DZ BR SCT005 BKN010 BECMG 1321/1324 VRB03KT 5000 BR SCT005 SCT010 PROB40 TEMPO 1400/1409 0800 DZ FG BKN001 BECMG 1409/1412 28008KT 9999 NSW SCT015 BKN025 PROB30 TEMPO 1409/1424 5000 -RA BR SCT006 BKN012

Decode

Departure Runways

ID Width Length Bearing (true) Bearing (mag) Surface Threshold Offset Overrun Length
03 148 ft / 45 m 12,518 ft / 3,815 m 22.70° 25.06° Asphalt 296 ft / 90 m 0 ft / 0 m
17 148 ft / 45 m 7,922 ft / 2,415 m 168.38° 170.74° Asphalt 0 ft / 0 m 0 ft / 0 m
21 148 ft / 45 m 12,518 ft / 3,815 m 202.72° 205.08° Asphalt 1,969 ft / 600 m 0 ft / 0 m
35 148 ft / 45 m 7,922 ft / 2,415 m 348.38° 350.74° Asphalt 492 ft / 150 m 0 ft / 0 m

LPBJ

Details ICAO LPBJ
Name BEJA
Region Portugal
Timezone Europe/Lisbon (UTC+0.0)
Stats Elevation 636 ft / 194 m (AMSL)
Location 38.078784° -7.931182°
Runways 2
Magnetic Variation 1.948° W

METAR

LPBJ 132000Z 35002KT 9999 SCT032 10/05 Q1028

Decode

TAF

TAF LPBJ 131102Z 1312/1412 VRB02KT CAVOK BECMG 1312/1314 BKN032 BECMG 1318/1320 BKN018 TEMPO 1400/1412 BKN012

Decode

Destination Runways

ID Width Length Bearing (true) Bearing (mag) Surface Threshold Offset Overrun Length
01L 197 ft / 60 m 11,341 ft / 3,457 m 5.90° 7.85° Concrete 0 ft / 0 m 902 ft / 275 m
01R 98 ft / 30 m 9,699 ft / 2,956 m 5.91° 7.86° Concrete 0 ft / 0 m 804 ft / 245 m
19L 98 ft / 30 m 9,699 ft / 2,956 m 185.91° 187.86° Concrete 0 ft / 0 m 833 ft / 254 m
19R 197 ft / 60 m 11,341 ft / 3,457 m 185.90° 187.85° Concrete 0 ft / 0 m 902 ft / 275 m

Approach Navaids

Runway Type Ident Frequency Range Bearing (true) Bearing (mag) Slope Elevation
19R Localiser BJ 110.30 MHz 18 nm / 33 km 185.90° 187.85° - 628 ft / 191 m (AMSL)
19R Glidescope BJ 110.30 MHz 10 nm / 19 km 185.90° 187.85° 3.00° 625 ft / 191 m (AMSL)

Popular Alternatives